Terminal Aerodrome Forecast
Issued by NWS

Home | Current Version | Previous Version | Text Only | Print | Product List | Glossary On
Versions: 1 2 3 4 5 6 7 8 9 10 11 12 13 14 15 16 17 18 19 20 21 22 23 24 25 26 27 28 29 30 31 32
000
FTUS45 KGJT 261135 AAA
TAFDRO
TAF AMD
KDRO 261135Z 2612/2712 22004KT P6SM FEW090 SCT200
     FM261800 25007KT P6SM SCT080
     FM270300 36004KT P6SM SCT200
     FM270800 07004KT P6SM SCT120
     FM271000 10004KT P6SM BKN050=

USA.gov is the U.S. government's official web portal to all federal, state and local government web resources and services.